Amherst, WI

8:24 AM CST on February 08, 2016 (GMT -0600)
Gordondale Farms | | Change Station
CLOSE
Current Station
Personal Weather Station
Location: Nelsonville, WI
Elevation: 1080 ft
Nearby Weather Stations

Elev 1080 ft 44.49 °N, 89.31 °W | Updated 3 minutes ago

Overcast
Overcast
22.0 °F
Feels Like 22 °F
N
2.0
Wind Variable Wind from WSW
Gusts 2.0 mph

Today
High -- | Low -- °F
--% Chance of Precip.
Yesterday
High -- | Low -- °F
Precip. -- in
Pressure 29.64 in
Visibility 10.0 miles
Clouds Overcast 1500 ft
Windchill 22 °F
Dew Point 19 °F
Humidity 87%
Rainfall 0.00 in
Snow Depth Not available.
7:07 AM 5:15 PM
Waning Crescent, 0% visible
METAR KSTE 081415Z AUTO 29006KT 10SM OVC015 M07/M09 A2964 RMK AO2 T10701095
Pressure 29.64 in
Visibility 10.0 miles
Clouds Overcast 1500 ft
Windchill 22 °F
Dew Point 19 °F
Humidity 87%
Rainfall 0.00 in
Snow Depth Not available.
7:07 AM 5:15 PM
Waning Crescent, 0% visible
METAR KSTE 081415Z AUTO 29006KT 10SM OVC015 M07/M09 A2964 RMK AO2 T10701095

10-Day Weather Forecast

Almanac

Astronomy

Feb. 08, 2016 Rise Set
Actual Time
Civil Twilight
Nautical Twilight
Astronomical Twilight
Moon
Length of Visible Light
Length of Day
Tomorrow will be .
, % of the Moon is Illuminated

Today's Extremes

State Highs State Lows

Community

WunderPhotos

Upload Photos

1,891,437 photos uploaded!

WunderBlog® & News

Nearby

Air Quality

  Air Quality AQ Index Pollutant
Not available.

Snow Depth

Station Depth Elevation

Earthquake Activity

City Distance Mag. Time & Date
Minimum magnitude displayed is 2.5.

Coastal Water Temperatures

Place Temperature

Stations

Nearby Weather Stations

Station Location Temp. Windchill Dew Point Humidity Wind Precip. Elev Updated Type
                   

Watches & Warnings

There are currently no watches in effect.